Time;durP1;ratioP1;P1;durP2;ratioP2;P2;SDS_P1;SDS_P2;PMS_P1;PMS_P2;Temp;Humidity;BMP_temperature;BMP_pressure;BME280_temperature;BME280_humidity;BME280_pressure;Samples;Min_cycle;Max_cycle;Signal;HPM_P1;HPM_P2
2022/11/15 00:00:35;;;;;;;16.85;9.63;;;;;;;7.58;85.07;97130.38;5093030;28;20055;-60
2022/11/15 00:03:02;;;;;;;21.60;10.27;;;;;;;7.63;85.54;97130.31;5093131;28;20085;-60
2022/11/15 00:05:29;;;;;;;18.90;9.73;;;;;;;7.62;85.34;97129.47;5093241;28;20044;-60
2022/11/15 00:07:58;;;;;;;16.50;9.77;;;;;;;7.60;85.83;97131.22;5092963;28;20102;-60
2022/11/15 00:10:26;;;;;;;14.18;9.57;;;;;;;7.65;85.89;97126.78;5092987;28;20048;-60
2022/11/15 00:12:53;;;;;;;21.33;11.35;;;;;;;7.71;86.47;97120.63;5093464;28;20058;-60
2022/11/15 00:15:20;;;;;;;15.52;9.07;;;;;;;7.75;86.43;97118.81;5093165;28;20056;-60
2022/11/15 00:17:50;;;;;;;17.50;9.15;;;;;;;7.77;86.04;97127.47;5092969;28;20045;-60
2022/11/15 00:20:18;;;;;;;14.15;7.75;;;;;;;7.77;86.05;97119.66;5092989;28;20456;-60
2022/11/15 00:22:45;;;;;;;14.77;8.05;;;;;;;7.79;85.85;97120.47;5092965;28;20508;-60
2022/11/15 00:25:12;;;;;;;14.48;8.68;;;;;;;7.80;85.51;97122.22;5092762;28;20082;-60
2022/11/15 00:27:42;;;;;;;16.70;8.85;;;;;;;7.77;85.76;97117.06;5092780;28;20047;-60
2022/11/15 00:30:10;;;;;;;20.48;9.50;;;;;;;7.82;85.69;97117.81;5092804;28;20055;-60
2022/11/15 00:32:37;;;;;;;19.02;10.55;;;;;;;7.86;85.53;97103.88;5092872;28;20040;-60
2022/11/15 00:35:05;;;;;;;17.15;10.25;;;;;;;7.87;85.75;97100.38;5092756;28;20105;-60
2022/11/15 00:37:32;;;;;;;14.63;8.95;;;;;;;7.92;85.42;97101.13;5092672;28;20127;-60
2022/11/15 00:39:59;;;;;;;20.65;9.38;;;;;;;7.95;85.38;97102.84;5093324;28;20044;-60
2022/11/15 00:42:26;;;;;;;17.75;9.85;;;;;;;7.95;85.10;97095.88;5096500;28;20040;-61
2022/11/15 00:44:54;;;;;;;15.05;9.07;;;;;;;7.96;85.09;97099.34;5096408;28;20048;-60
2022/11/15 00:47:21;;;;;;;15.50;8.65;;;;;;;7.94;84.99;97091.56;5096504;28;20131;-60
2022/11/15 00:49:49;;;;;;;15.50;9.43;;;;;;;7.96;85.13;97083.72;5096392;28;20044;-60
2022/11/15 00:52:16;;;;;;;18.50;10.20;;;;;;;7.99;85.10;97083.66;5096360;28;20135;-60
2022/11/15 00:54:43;;;;;;;23.38;11.38;;;;;;;8.01;84.89;97079.25;5096378;28;20048;-60
2022/11/15 00:57:10;;;;;;;17.58;10.73;;;;;;;8.04;85.09;97080.97;5096277;28;20056;-60
2022/11/15 00:59:37;;;;;;;20.02;11.73;;;;;;;8.05;84.96;97080.94;5096304;28;20062;-60
2022/11/15 01:02:06;;;;;;;22.70;12.13;;;;;;;8.07;84.94;97083.50;5096148;28;20456;-60
2022/11/15 01:04:33;;;;;;;23.17;12.40;;;;;;;8.08;85.13;97083.50;5096145;28;20044;-60
2022/11/15 01:07:00;;;;;;;24.25;11.18;;;;;;;8.08;85.22;97080.88;5096232;28;20079;-60
2022/11/15 01:09:28;;;;;;;19.67;9.55;;;;;;;8.08;85.01;97075.66;5096403;28;20558;-60
2022/11/15 01:11:56;;;;;;;13.98;8.13;;;;;;;8.10;84.39;97078.25;5096039;28;20048;-60
2022/11/15 01:14:23;;;;;;;17.35;9.35;;;;;;;8.10;84.64;97078.25;5095987;28;20044;-60
2022/11/15 01:16:51;;;;;;;17.63;9.32;;;;;;;8.12;84.37;97078.22;5096035;28;20044;-60
2022/11/15 01:19:20;;;;;;;18.65;10.30;;;;;;;8.13;84.56;97069.50;5095997;28;20414;-60
2022/11/15 01:21:49;;;;;;;19.10;10.32;;;;;;;8.11;84.70;97072.13;5095827;28;20126;-60
2022/11/15 01:24:17;;;;;;;16.90;8.90;;;;;;;8.10;84.91;97062.63;5095517;28;20410;-60
2022/11/15 01:26:44;;;;;;;32.47;13.65;;;;;;;8.11;84.89;97064.31;5095740;28;20131;-60
2022/11/15 01:29:12;;;;;;;23.75;12.68;;;;;;;8.08;85.19;97067.84;5095712;28;20053;-60
2022/11/15 01:31:39;;;;;;;24.45;13.00;;;;;;;8.07;85.46;97063.50;5095696;28;20050;-60
2022/11/15 01:34:06;;;;;;;30.58;13.18;;;;;;;8.11;85.46;97066.06;5095687;28;20051;-60
2022/11/15 01:36:35;;;;;;;29.90;13.63;;;;;;;8.12;85.34;97063.41;5095451;28;20048;-60
2022/11/15 01:39:02;;;;;;;27.48;12.90;;;;;;;8.15;85.50;97060.75;5095835;28;20492;-60
2022/11/15 01:41:31;;;;;;;30.52;14.80;;;;;;;8.18;85.46;97060.69;5095422;28;20087;-60
2022/11/15 01:44:42;;;;;;;27.10;13.40;;;;;;;8.19;85.58;97051.97;5095373;28;20044;-59
2022/11/15 01:47:14;;;;;;;28.60;13.95;;;;;;;8.19;85.72;97051.16;5080149;28;20076;-60
2022/11/15 01:49:47;;;;;;;29.63;15.73;;;;;;;8.19;85.45;97062.41;5095390;28;20123;-60
2022/11/15 01:52:20;;;;;;;27.45;13.70;;;;;;;8.20;85.35;97061.53;5094119;28;20054;-60
2022/11/15 01:54:48;;;;;;;29.92;14.38;;;;;;;8.23;85.52;97058.00;5095307;28;20048;-59
2022/11/15 01:57:16;;;;;;;30.25;14.40;;;;;;;8.23;85.42;97055.41;5095166;28;20490;-60
2022/11/15 01:59:45;;;;;;;34.38;14.48;;;;;;;8.26;85.27;97051.88;5095374;28;20558;-60
2022/11/15 02:02:13;;;;;;;30.77;13.68;;;;;;;8.29;85.36;97051.81;5095105;28;20083;-60
2022/11/15 02:04:43;;;;;;;32.67;15.63;;;;;;;8.32;85.31;97054.34;5094899;28;20051;-60
2022/11/15 02:07:13;;;;;;;35.17;15.50;;;;;;;8.34;85.18;97055.19;5095040;28;20128;-60
2022/11/15 02:09:43;;;;;;;38.15;14.40;;;;;;;8.33;85.11;97048.22;5095225;28;20608;-60
2022/11/15 02:12:12;;;;;;;34.45;13.60;;;;;;;8.33;84.84;97046.50;5094884;28;20109;-60
2022/11/15 02:14:42;;;;;;;30.33;13.48;;;;;;;8.33;84.87;97041.28;5094817;28;20044;-60
2022/11/15 02:17:26;;;;;;;30.70;14.27;;;;;;;8.32;84.87;97047.41;5094713;28;20097;-60
2022/11/15 02:20:44;;;;;;;28.23;14.35;;;;;;;8.33;84.94;97040.41;5094890;28;20048;-60
2022/11/15 02:23:36;;;;;;;33.65;13.70;;;;;;;8.33;84.63;97038.69;5088076;28;20044;-60
2022/11/15 02:26:26;;;;;;;32.42;14.23;;;;;;;8.31;84.87;97035.22;5094462;28;20406;-60
2022/11/15 02:29:04;;;;;;;26.63;13.93;;;;;;;8.33;85.04;97036.06;5094805;28;20138;-60
2022/11/15 02:31:42;;;;;;;29.45;13.45;;;;;;;8.33;84.77;97036.06;5094825;28;20055;-60
2022/11/15 02:34:18;;;;;;;24.20;13.80;;;;;;;8.33;84.71;97040.41;5094481;28;20044;-59
2022/11/15 02:36:55;;;;;;;29.45;13.30;;;;;;;8.27;84.62;97038.81;5094572;28;20128;-60
2022/11/15 02:39:31;;;;;;;26.45;12.55;;;;;;;8.28;84.90;97039.66;5094487;28;20069;-60
2022/11/15 02:42:03;;;;;;;27.85;13.15;;;;;;;8.31;84.96;97039.59;5094401;28;20052;-60
2022/11/15 02:44:36;;;;;;;29.17;13.50;;;;;;;8.30;84.97;97040.47;5094285;28;20437;-60
2022/11/15 02:47:14;;;;;;;28.50;13.73;;;;;;;8.32;84.72;97041.31;5094260;28;20076;-60
2022/11/15 02:49:45;;;;;;;31.60;14.55;;;;;;;8.30;84.78;97038.75;5094269;28;20404;-60
2022/11/15 02:52:15;;;;;;;;;;;;;;;8.31;84.89;97039.59;5094881;28;20105;-60
2022/11/15 02:54:42;;;;;;;29.23;15.05;;;;;;;8.30;84.99;97037.88;5094077;28;20007;-60
2022/11/15 02:57:16;;;;;;;27.13;14.20;;;;;;;8.29;85.03;97038.75;5094076;28;20083;-60
2022/11/15 03:00:09;;;;;;;29.80;14.10;;;;;;;8.32;84.86;97041.31;5094005;28;20040;-60
2022/11/15 03:02:58;;;;;;;29.13;14.27;;;;;;;8.32;84.97;97041.31;5093492;28;20052;-60
2022/11/15 03:05:36;;;;;;;30.80;14.02;;;;;;;8.30;84.89;97030.91;5093775;28;20402;-60
2022/11/15 03:08:11;;;;;;;33.45;14.77;;;;;;;8.27;84.93;97025.75;5094147;28;20055;-60
2022/11/15 03:10:47;;;;;;;28.30;15.15;;;;;;;8.29;84.98;97023.13;5093766;28;20040;-60
2022/11/15 03:13:25;;;;;;;29.63;14.00;;;;;;;8.36;84.90;97023.88;5093631;28;20102;-60
2022/11/15 03:15:58;;;;;;;28.52;13.55;;;;;;;8.36;84.98;97027.31;5093683;28;20512;-60
2022/11/15 03:18:32;;;;;;;31.27;14.50;;;;;;;8.38;84.79;97022.06;5093777;28;20052;-60
2022/11/15 03:21:04;;;;;;;33.40;14.57;;;;;;;8.40;84.68;97015.09;5093623;28;20048;-60
2022/11/15 03:23:32;;;;;;;29.08;14.45;;;;;;;8.40;84.95;97015.94;5093599;28;20044;-60
2022/11/15 03:26:01;;;;;;;27.25;12.10;;;;;;;8.40;84.79;97020.31;5093243;28;20048;-60
2022/11/15 03:28:34;;;;;;;32.72;15.93;;;;;;;8.42;84.61;97019.38;5093512;28;20059;-59
2022/11/15 03:31:46;;;;;;;42.47;15.15;;;;;;;8.41;84.51;97019.41;5093428;28;20456;-60
2022/11/15 03:33:56;;;;;;;30.37;14.57;;;;;;;8.40;84.37;97012.47;5093472;28;20055;-60
2022/11/15 03:36:25;;;;;;;26.55;14.02;;;;;;;8.41;84.46;97006.38;5093526;28;20358;-59
2022/11/15 03:38:55;;;;;;;31.48;14.82;;;;;;;8.39;84.51;97002.91;5093234;28;20127;-60
2022/11/15 03:41:29;;;;;;;30.67;13.45;;;;;;;8.41;84.69;97011.56;5093433;28;20066;-59
2022/11/15 03:44:03;;;;;;;31.30;13.98;;;;;;;8.41;84.44;96996.81;5093339;28;20059;-60
2022/11/15 03:46:38;;;;;;;29.95;13.82;;;;;;;8.41;84.49;96996.81;5093207;28;20185;-60
2022/11/15 03:49:11;;;;;;;31.08;13.35;;;;;;;8.41;84.49;96999.41;5093271;28;20048;-60
2022/11/15 03:51:38;;;;;;;30.02;12.77;;;;;;;8.40;84.60;97002.06;5093355;28;20093;-60
2022/11/15 03:54:06;;;;;;;32.22;13.88;;;;;;;8.38;84.35;96993.41;5093221;28;20044;-60
2022/11/15 03:56:33;;;;;;;31.85;13.90;;;;;;;8.38;84.77;96993.41;5093153;28;20048;-59
2022/11/15 03:59:00;;;;;;;26.73;13.10;;;;;;;8.38;84.57;96996.00;5093175;28;20505;-60
2022/11/15 04:01:28;;;;;;;34.88;14.88;;;;;;;8.38;84.50;96990.78;5093098;28;20056;-59
2022/11/15 04:03:55;;;;;;;32.40;14.77;;;;;;;8.39;84.49;96992.50;5092995;28;20477;-60
2022/11/15 04:06:24;;;;;;;36.28;14.43;;;;;;;8.41;84.50;96986.38;5093033;28;20083;-60
2022/11/15 04:08:51;;;;;;;32.17;14.38;;;;;;;8.41;84.41;96988.13;5093039;28;20097;-59
2022/11/15 04:11:18;;;;;;;28.88;14.25;;;;;;;8.41;84.26;96986.38;5093058;28;20048;-60
2022/11/15 04:13:46;;;;;;;28.15;13.25;;;;;;;8.43;84.11;96986.34;5092924;28;20079;-60
2022/11/15 04:16:13;;;;;;;31.13;14.10;;;;;;;8.43;84.21;96987.19;5095722;28;20044;-60
2022/11/15 04:18:40;;;;;;;30.33;15.30;;;;;;;8.43;84.29;96989.78;5097034;28;20486;-60
2022/11/15 04:24:13;;;;;;;27.45;13.40;;;;;;;8.43;84.21;96987.19;5097328;28;20051;-60
2022/11/15 04:26:40;;;;;;;32.38;14.35;;;;;;;8.43;84.40;96984.56;5096815;28;20479;-61
2022/11/15 04:31:51;;;;;;;27.52;14.25;;;;;;;8.43;84.26;96976.75;5096999;28;20047;-61
2022/11/15 04:34:22;;;;;;;35.08;14.43;;;;;;;8.42;84.45;96982.88;5096788;28;20428;-61
2022/11/15 04:39:37;;;;;;;26.48;12.40;;;;;;;8.38;84.32;96982.97;5096876;28;19926;-61
2022/11/15 04:42:06;;;;;;;32.67;14.13;;;;;;;8.37;84.45;96989.09;5096629;28;20127;-60
2022/11/15 04:44:40;;;;;;;32.50;14.82;;;;;;;8.35;84.47;96981.28;5096657;28;20097;-60
2022/11/15 04:47:07;;;;;;;28.92;15.18;;;;;;;8.33;84.46;96980.44;5096532;28;20048;-61
2022/11/15 04:49:35;;;;;;;33.72;13.45;;;;;;;8.35;84.68;96983.91;5096582;28;20051;-60
2022/11/15 04:52:02;;;;;;;29.73;14.13;;;;;;;8.34;84.46;96970.00;5096375;28;20059;-60
2022/11/15 04:54:29;;;;;;;28.58;14.05;;;;;;;8.34;84.59;96982.19;5096479;28;20071;-60
2022/11/15 04:56:58;;;;;;;37.85;14.55;;;;;;;8.33;84.62;96983.94;5096539;28;20052;-61
2022/11/15 04:59:25;;;;;;;33.92;13.52;;;;;;;8.34;84.37;96985.63;5096454;28;20079;-60
2022/11/15 05:01:52;;;;;;;31.58;13.65;;;;;;;8.37;84.33;96981.25;5096365;28;20044;-61
2022/11/15 05:04:18;;;;;;;28.15;13.88;;;;;;;8.38;84.52;96973.41;5096164;28;20558;-61
2022/11/15 05:06:47;;;;;;;31.58;13.95;;;;;;;8.39;84.40;96971.63;5095928;28;20051;-60
2022/11/15 05:09:17;;;;;;;34.22;14.35;;;;;;;8.42;84.52;96971.56;5096306;28;20109;-60
2022/11/15 05:11:44;;;;;;;;;;;;;;;8.39;84.56;96963.81;5096425;28;20063;-60
2022/11/15 05:14:14;;;;;;;26.42;12.70;;;;;;;8.37;84.67;96968.22;5096049;28;20331;-61
2022/11/15 05:16:42;;;;;;;26.92;14.45;;;;;;;8.37;84.91;96971.66;5096148;28;20482;-60
2022/11/15 05:19:09;;;;;;;38.70;14.80;;;;;;;8.38;84.72;96970.78;5095899;28;20097;-61
2022/11/15 05:21:38;;;;;;;31.35;13.23;;;;;;;8.39;84.79;96962.06;5095888;28;20048;-60
2022/11/15 05:24:06;;;;;;;30.48;13.68;;;;;;;8.42;84.73;96968.97;5095723;28;20494;-60
2022/11/15 05:26:34;;;;;;;28.10;13.20;;;;;;;8.38;84.49;96969.94;5095346;28;20048;-60
2022/11/15 05:29:01;;;;;;;25.27;14.07;;;;;;;8.39;84.84;96971.63;5095763;28;20107;-60
2022/11/15 05:31:31;;;;;;;26.95;13.80;;;;;;;8.36;85.05;96969.97;5095592;28;20075;-60
2022/11/15 05:34:01;;;;;;;35.90;15.35;;;;;;;8.36;85.16;96979.56;5095542;28;20052;-60
2022/11/15 05:36:34;;;;;;;32.70;15.87;;;;;;;8.35;84.99;96968.25;5095788;28;20051;-61
2022/11/15 05:39:02;;;;;;;32.30;14.68;;;;;;;8.36;85.20;96983.00;5095455;28;20097;-61
2022/11/15 05:41:34;;;;;;;36.70;16.33;;;;;;;8.31;85.30;96983.09;5095440;28;20414;-60
2022/11/15 05:44:03;;;;;;;41.25;18.73;;;;;;;8.32;85.44;96989.19;5095728;28;20078;-60
2022/11/15 05:46:32;;;;;;;42.08;18.73;;;;;;;8.33;85.48;96985.66;5095296;28;20055;-61
2022/11/15 05:48:59;;;;;;;36.70;17.65;;;;;;;8.34;85.38;96990.00;5095435;28;20051;-60
2022/11/15 05:51:30;;;;;;;35.70;18.08;;;;;;;8.34;85.15;96990.84;5095358;28;20055;-60
2022/11/15 05:53:59;;;;;;;38.00;18.85;;;;;;;8.33;85.14;96991.75;5095277;28;20087;-60
2022/11/15 05:56:34;;;;;;;40.00;18.75;;;;;;;8.33;85.35;96988.28;5095113;28;20071;-60
2022/11/15 05:59:02;;;;;;;38.70;18.23;;;;;;;8.36;85.63;97000.41;5095101;28;20129;-61
2022/11/15 06:01:31;;;;;;;37.42;17.98;;;;;;;8.36;85.32;96996.03;5095146;28;20076;-60
2022/11/15 06:03:59;;;;;;;37.55;18.35;;;;;;;8.33;85.64;96988.28;5095021;28;20482;-60
2022/11/15 06:06:29;;;;;;;40.95;19.10;;;;;;;8.31;85.89;96995.28;5095146;28;20044;-60
2022/11/15 06:08:56;;;;;;;37.45;19.23;;;;;;;8.30;85.90;97001.38;5094916;28;20048;-61
2022/11/15 06:11:24;;;;;;;39.40;19.23;;;;;;;8.27;86.06;97004.91;5094848;28;20047;-60
2022/11/15 06:13:51;;;;;;;40.35;20.13;;;;;;;8.29;86.28;96997.06;5094817;28;20441;-60
2022/11/15 06:16:19;;;;;;;51.10;19.77;;;;;;;8.33;86.39;97002.19;5094834;28;20123;-61
2022/11/15 06:18:47;;;;;;;43.55;20.23;;;;;;;8.38;86.12;97012.50;5094845;28;20040;-60
2022/11/15 06:21:14;;;;;;;47.25;20.40;;;;;;;8.39;86.08;97009.00;5094706;28;20044;-60
2022/11/15 06:23:42;;;;;;;47.75;18.63;;;;;;;8.43;85.92;96997.59;5094643;28;20056;-60
2022/11/15 06:26:09;;;;;;;45.05;19.02;;;;;;;8.47;86.01;97003.63;5094364;28;20051;-60
2022/11/15 06:28:36;;;;;;;47.25;19.77;;;;;;;8.47;85.92;96999.28;5094765;28;20044;-60
2022/11/15 06:31:05;;;;;;;53.75;21.33;;;;;;;8.50;85.78;97006.16;5094689;28;20424;-60
2022/11/15 06:33:33;;;;;;;49.47;21.50;;;;;;;8.49;85.95;97011.41;5094487;28;20130;-60
2022/11/15 06:36:03;;;;;;;47.30;21.67;;;;;;;8.54;85.85;97007.84;5094525;28;20090;-60
2022/11/15 06:38:30;;;;;;;53.08;21.77;;;;;;;8.59;85.40;97008.59;5093802;28;20131;-61
2022/11/15 06:41:03;;;;;;;41.38;20.27;;;;;;;8.50;85.54;97003.56;5094429;28;20090;-60
2022/11/15 06:43:30;;;;;;;50.25;20.33;;;;;;;8.51;85.78;97001.78;5094287;28;20536;-60
2022/11/15 06:45:59;;;;;;;47.17;19.95;;;;;;;8.55;85.86;97000.88;5094402;28;20124;-60
2022/11/15 06:48:27;;;;;;;52.00;21.38;;;;;;;8.61;85.74;96998.13;5094192;28;20044;-60
2022/11/15 06:50:55;;;;;;;41.20;20.25;;;;;;;8.62;85.70;97012.88;5094229;28;20123;-60
2022/11/15 06:53:24;;;;;;;47.72;20.60;;;;;;;8.63;85.61;97003.28;5094429;28;20055;-61
2022/11/15 06:55:51;;;;;;;45.83;20.85;;;;;;;8.68;85.41;97004.06;5094108;28;20052;-60
2022/11/15 06:58:19;;;;;;;43.55;20.20;;;;;;;8.64;85.38;97002.44;5094078;28;20048;-60
2022/11/15 07:00:46;;;;;;;48.05;20.83;;;;;;;8.65;85.72;97007.59;5094015;28;20052;-60
2022/11/15 07:03:13;;;;;;;43.90;19.90;;;;;;;8.68;85.65;97002.31;5093900;28;20044;-61
2022/11/15 07:05:40;;;;;;;54.08;20.90;;;;;;;8.70;85.57;96997.91;5093901;28;20127;-60
2022/11/15 07:08:08;;;;;;;40.00;19.98;;;;;;;8.72;85.51;97006.56;5093782;28;20138;-60
2022/11/15 07:10:37;;;;;;;39.05;19.10;;;;;;;8.76;85.22;97002.13;5093734;28;20401;-60
2022/11/15 07:13:04;;;;;;;44.33;19.88;;;;;;;8.78;85.03;97002.09;5093791;28;20510;-61
2022/11/15 07:15:31;;;;;;;45.40;21.13;;;;;;;8.82;85.20;96995.94;5093596;28;20044;-60
2022/11/15 07:18:02;;;;;;;45.13;19.15;;;;;;;8.83;84.95;97001.13;5093610;28;20063;-60
2022/11/15 07:20:29;;;;;;;41.90;19.02;;;;;;;8.84;84.71;97000.22;5093696;28;20457;-60
2022/11/15 07:23:02;;;;;;;45.92;19.42;;;;;;;8.88;84.77;96997.53;5093674;28;20040;-60
2022/11/15 07:25:29;;;;;;;39.45;18.95;;;;;;;8.91;84.98;97000.91;5093357;28;20557;-61
2022/11/15 07:27:58;;;;;;;45.55;19.42;;;;;;;8.97;85.00;96994.66;5093380;28;20044;-60
2022/11/15 07:30:27;;;;;;;45.72;20.50;;;;;;;9.01;84.47;96992.84;5093481;28;20135;-60
2022/11/15 07:32:55;;;;;;;51.35;19.13;;;;;;;9.06;84.16;96994.47;5093407;28;20044;-61
2022/11/15 07:35:22;;;;;;;39.08;18.77;;;;;;;9.08;84.11;96995.28;5093419;28;20044;-60
2022/11/15 07:38:00;;;;;;;38.83;18.75;;;;;;;9.09;83.75;96989.16;5093271;28;20048;-60
2022/11/15 07:40:28;;;;;;;37.22;18.63;;;;;;;9.11;83.60;96989.13;5093458;28;20048;-60
2022/11/15 07:43:01;;;;;;;43.58;18.90;;;;;;;9.10;83.66;96985.66;5093362;28;20075;-60
2022/11/15 07:45:29;;;;;;;47.97;19.50;;;;;;;9.15;83.33;96989.91;5093224;28;20180;-60
2022/11/15 07:47:57;;;;;;;40.47;19.02;;;;;;;9.14;83.56;96989.06;5093433;28;20067;-60
2022/11/15 07:50:25;;;;;;;35.40;17.30;;;;;;;9.15;83.51;96998.59;5093419;28;20051;-60
2022/11/15 07:52:56;;;;;;;37.88;18.45;;;;;;;9.19;83.35;96996.78;5093137;28;20055;-60
2022/11/15 07:55:24;;;;;;;38.60;19.13;;;;;;;9.23;83.06;96994.03;5093166;28;20448;-60
2022/11/15 07:57:51;;;;;;;42.45;19.92;;;;;;;9.16;83.03;97002.06;5093118;28;20059;-61
2022/11/15 08:00:20;;;;;;;43.80;18.95;;;;;;;9.17;83.51;96996.81;5093020;28;20044;-60
2022/11/15 08:02:47;;;;;;;42.97;20.23;;;;;;;9.19;83.28;96994.16;5093403;28;20048;-60
2022/11/15 08:05:15;;;;;;;46.10;18.77;;;;;;;9.27;83.04;96994.81;5093217;28;20143;-60
2022/11/15 08:07:42;;;;;;;39.90;19.98;;;;;;;9.28;83.07;96990.47;5093036;28;20090;-60
2022/11/15 08:10:11;;;;;;;41.95;19.67;;;;;;;9.22;82.97;96994.09;5093016;28;20040;-60
2022/11/15 08:12:38;;;;;;;39.97;19.02;;;;;;;9.26;82.58;96994.84;5093031;28;20532;-60
2022/11/15 08:15:07;;;;;;;39.38;18.60;;;;;;;9.28;82.64;96993.06;5092985;28;20127;-60
2022/11/15 08:17:35;;;;;;;41.10;18.98;;;;;;;9.30;82.57;96996.50;5093035;28;20071;-60
2022/11/15 08:20:03;;;;;;;43.92;19.67;;;;;;;9.24;82.58;96994.88;5092932;28;20047;-60
2022/11/15 08:22:30;;;;;;;45.35;20.55;;;;;;;9.28;82.36;96990.47;5093055;28;20044;-60
2022/11/15 08:24:57;;;;;;;45.72;19.15;;;;;;;9.32;82.16;96994.69;5092741;28;20048;-60
2022/11/15 08:27:25;;;;;;;42.03;19.17;;;;;;;9.34;82.06;96995.53;5092816;28;20139;-60
2022/11/15 08:29:52;;;;;;;38.92;18.27;;;;;;;9.30;82.26;96994.72;5092836;28;20048;-60
2022/11/15 08:32:19;;;;;;;36.78;17.65;;;;;;;9.36;81.84;96993.72;5092827;28;20075;-60
2022/11/15 08:34:48;;;;;;;40.65;18.98;;;;;;;9.40;81.90;96992.75;5092848;28;20041;-60
2022/11/15 08:37:15;;;;;;;42.70;19.00;;;;;;;9.44;81.55;96988.31;5092834;28;20048;-60
2022/11/15 08:39:42;;;;;;;37.60;18.73;;;;;;;9.44;81.82;96990.91;5092756;28;20048;-60
2022/11/15 08:42:09;;;;;;;41.40;19.85;;;;;;;9.50;81.55;96987.28;5092655;28;20044;-60
2022/11/15 08:44:36;;;;;;;35.83;18.38;;;;;;;9.53;81.35;96979.38;5092727;28;20072;-60
2022/11/15 08:47:03;;;;;;;39.75;20.10;;;;;;;9.60;81.02;96980.91;5092916;28;20457;-60
2022/11/15 08:49:31;;;;;;;42.78;18.95;;;;;;;9.58;80.38;96980.94;5092876;28;20105;-60
2022/11/15 08:51:59;;;;;;;34.10;17.45;;;;;;;9.65;80.07;96973.81;5092643;28;20048;-59
2022/11/15 08:54:27;;;;;;;45.35;20.88;;;;;;;9.71;79.90;96972.78;5092607;28;20052;-59
2022/11/15 08:56:54;;;;;;;42.95;19.85;;;;;;;9.72;79.92;96971.88;5092553;28;20047;-62
2022/11/15 08:59:22;;;;;;;36.60;18.45;;;;;;;9.74;79.67;96967.47;5092727;28;20080;-61
2022/11/15 09:01:49;;;;;;;35.42;18.85;;;;;;;9.71;79.39;96972.78;5094419;28;20048;-61
2022/11/15 09:04:16;;;;;;;42.42;20.45;;;;;;;9.69;79.70;96962.38;5096160;28;20054;-61
2022/11/15 09:06:43;;;;;;;47.65;18.58;;;;;;;9.67;79.68;96955.50;5096242;28;20048;-61
2022/11/15 09:09:12;;;;;;;34.15;17.55;;;;;;;9.66;80.20;96959.00;5096024;28;20048;-61
2022/11/15 09:11:39;;;;;;;46.03;19.15;;;;;;;9.71;79.98;96944.03;5096059;28;20501;-61
2022/11/15 09:14:06;;;;;;;35.90;17.08;;;;;;;9.76;79.32;96947.41;5096184;28;20047;-61
2022/11/15 09:16:34;;;;;;;36.80;18.63;;;;;;;9.75;79.30;96939.59;5096099;28;20071;-61
2022/11/15 09:19:01;;;;;;;37.92;19.85;;;;;;;9.68;78.92;96938.91;5095859;28;20047;-61
2022/11/15 09:21:30;;;;;;;42.30;18.55;;;;;;;9.65;79.15;96933.75;5095815;28;20043;-61
2022/11/15 09:23:57;;;;;;;36.45;19.38;;;;;;;9.73;79.09;96927.41;5095924;28;20454;-61
2022/11/15 09:26:26;;;;;;;35.63;17.70;;;;;;;9.82;78.22;96934.13;5095623;28;20048;-61
2022/11/15 09:28:54;;;;;;;30.45;17.00;;;;;;;9.78;77.67;96929.91;5095902;28;20117;-60
2022/11/15 09:31:21;;;;;;;31.88;17.05;;;;;;;9.78;77.29;96923.84;5095675;28;20127;-60
2022/11/15 09:33:48;;;;;;;42.47;17.98;;;;;;;9.82;76.97;96918.47;5095549;28;20402;-60
2022/11/15 09:36:16;;;;;;;40.30;17.65;;;;;;;9.84;77.06;96921.91;5095996;28;20072;-61
2022/11/15 09:38:43;;;;;;;34.65;18.83;;;;;;;9.84;76.58;96918.41;5095679;28;20482;-61
2022/11/15 09:41:35;;;;;;;36.85;18.25;;;;;;;9.89;76.32;96915.66;5095493;28;20083;-61
2022/11/15 09:44:16;;;;;;;33.40;16.50;;;;;;;9.83;77.20;96912.34;5095626;28;20048;-61
2022/11/15 09:46:52;;;;;;;33.20;16.58;;;;;;;9.84;76.97;96908.84;5095538;28;20044;-61
2022/11/15 09:49:20;;;;;;;36.42;18.25;;;;;;;9.84;77.10;96897.50;5095421;28;20044;-61
2022/11/15 09:52:06;;;;;;;35.05;19.33;;;;;;;9.84;76.91;96903.59;5095384;28;20452;-60
2022/11/15 09:54:39;;;;;;;36.40;18.55;;;;;;;9.83;76.50;96888.84;5095154;28;20044;-60
2022/11/15 09:57:21;;;;;;;32.80;16.88;;;;;;;9.82;76.05;96889.72;5095587;28;20542;-60
2022/11/15 10:00:05;;;;;;;33.88;17.67;;;;;;;9.84;76.02;96887.06;5095267;28;20131;-60
2022/11/15 10:02:48;;;;;;;35.05;18.63;;;;;;;9.82;76.23;96883.66;5095043;28;20502;-60
2022/11/15 10:05:18;;;;;;;36.20;17.38;;;;;;;9.78;75.80;96884.66;5095043;28;20040;-60
2022/11/15 10:07:52;;;;;;;34.10;18.02;;;;;;;9.79;76.19;96871.56;5095224;28;20055;-60
2022/11/15 10:10:28;;;;;;;34.90;17.23;;;;;;;9.76;76.13;96873.38;5095030;28;20044;-60
2022/11/15 10:12:57;;;;;;;32.95;17.17;;;;;;;9.84;75.59;96863.53;5093839;28;20087;-61
2022/11/15 11:40:45;;;;;;;33.78;20.02;;;;;;;10.10;76.08;96792.19;5131584;27;20748;-62
2022/11/15 11:43:21;;;;;;;31.92;18.45;;;;;;;10.11;75.13;96780.81;5131405;28;20039;-62
2022/11/15 11:46:10;;;;;;;38.20;17.77;;;;;;;10.04;74.44;96770.59;5131218;28;20116;-62
2022/11/15 11:48:44;;;;;;;32.83;18.00;;;;;;;10.01;75.22;96768.97;5131186;28;20131;-62
2022/11/15 11:51:19;;;;;;;30.65;16.92;;;;;;;9.97;75.23;96775.19;5131154;27;20104;-62
2022/11/15 11:53:53;;;;;;;34.05;16.95;;;;;;;9.96;75.42;96771.72;5131017;28;20048;-62
2022/11/15 11:56:27;;;;;;;30.58;16.30;;;;;;;9.99;75.04;96769.00;5130943;28;20079;-62
2022/11/15 11:58:59;;;;;;;34.53;19.15;;;;;;;10.06;74.83;96766.19;5130942;28;20082;-62
2022/11/15 12:01:31;;;;;;;30.25;16.13;;;;;;;10.06;74.42;96755.75;5130954;28;20096;-62
2022/11/15 12:04:04;;;;;;;31.05;17.65;;;;;;;10.08;74.42;96760.00;5130950;28;20047;-62
2022/11/15 12:06:37;;;;;;;32.85;17.33;;;;;;;10.08;74.10;96748.69;5130788;28;20086;-62
2022/11/15 12:09:14;;;;;;;30.05;16.60;;;;;;;10.04;74.46;96750.56;5130761;28;20058;-62
2022/11/15 12:11:53;;;;;;;29.60;15.57;;;;;;;9.98;74.34;96751.63;5130655;28;20515;-62
2022/11/15 12:14:30;;;;;;;24.85;15.45;;;;;;;9.98;73.60;96745.53;5130672;27;20049;-62
2022/11/15 12:16:58;;;;;;;32.97;16.45;;;;;;;9.94;73.31;96746.53;5130677;28;20203;-62
2022/11/15 12:19:26;;;;;;;24.73;13.68;;;;;;;9.91;73.13;96731.81;5130613;28;20530;-62
2022/11/15 12:22:01;;;;;;;30.98;16.30;;;;;;;9.95;73.32;96730.81;5130489;28;20074;-62
2022/11/15 12:24:36;;;;;;;26.70;15.18;;;;;;;9.98;73.13;96722.00;5130494;28;20123;-62
2022/11/15 12:27:08;;;;;;;31.77;15.68;;;;;;;9.99;73.33;96716.75;5130417;28;20080;-62
2022/11/15 12:29:40;;;;;;;32.50;15.93;;;;;;;9.96;73.58;96716.84;5130360;28;20043;-62
2022/11/15 12:32:25;;;;;;;29.38;15.63;;;;;;;9.88;73.43;96715.38;5130394;28;20043;-62
2022/11/15 12:34:54;;;;;;;28.75;14.93;;;;;;;9.80;73.76;96706.03;5130238;28;20051;-62
2022/11/15 12:37:56;;;;;;;30.90;16.75;;;;;;;9.79;73.54;96708.69;5130177;28;20070;-62
2022/11/15 12:40:35;;;;;;;27.60;15.43;;;;;;;9.76;73.84;96704.44;5123014;28;20051;-62
2022/11/15 12:43:37;;;;;;;24.60;14.73;;;;;;;9.83;74.09;96705.94;5116569;28;20051;-62
2022/11/15 12:46:06;;;;;;;27.65;14.82;;;;;;;9.79;73.71;96706.94;5116561;28;20514;-62
2022/11/15 12:48:55;;;;;;;25.63;15.50;;;;;;;9.81;73.92;96696.44;5116354;28;20040;-62
2022/11/15 12:51:52;;;;;;;26.45;14.82;;;;;;;9.85;73.61;96698.06;5116332;28;20055;-62
2022/11/15 12:54:57;;;;;;;30.55;14.93;;;;;;;9.85;73.45;96698.88;5116171;28;20051;-62
2022/11/15 12:57:41;;;;;;;29.05;15.15;;;;;;;9.93;73.26;96697.81;5116244;28;20089;-62
2022/11/15 13:00:45;;;;;;;31.23;15.50;;;;;;;9.98;73.23;96701.09;5116170;28;20055;-62
2022/11/15 13:03:23;;;;;;;30.65;14.68;;;;;;;10.05;72.65;96696.53;5116353;27;20050;-62
2022/11/15 13:05:59;;;;;;;27.52;16.73;;;;;;;10.13;72.46;96697.13;5116011;28;20054;-62
2022/11/15 13:08:53;;;;;;;29.33;14.75;;;;;;;10.17;72.15;96690.06;5115836;28;20047;-62
2022/11/15 13:11:51;;;;;;;26.13;13.80;;;;;;;10.14;69.94;96688.38;5068245;28;20083;-62
2022/11/15 13:14:40;;;;;;;23.23;12.18;;;;;;;10.05;68.42;96684.31;5115923;28;20116;-62
2022/11/15 13:17:29;;;;;;;23.30;13.13;;;;;;;10.05;68.67;96679.09;5115931;28;20538;-62
2022/11/15 13:20:03;;;;;;;32.58;13.45;;;;;;;10.01;69.02;96681.84;5115881;28;20481;-62